Time;durP1;ratioP1;P1;durP2;ratioP2;P2;SDS_P1;SDS_P2;PMS_P1;PMS_P2;Temp;Humidity;BMP_temperature;BMP_pressure;BME280_temperature;BME280_humidity;BME280_pressure;Samples;Min_cycle;Max_cycle;Signal;HPM_P1;HPM_P2
2022/04/03 00:02:57;;;;;;;0.90;0.77;;;16.80;50.50;;;;;;10375244;28;20061;-51
2022/04/03 00:07:59;;;;;;;1.30;0.93;;;16.90;50.40;;;;;;10399059;28;20040;-52
2022/04/03 00:12:59;;;;;;;1.42;1.02;;;16.90;50.30;;;;;;10415377;28;20494;-49
2022/04/03 00:18:00;;;;;;;2.08;1.17;;;16.90;50.10;;;;;;10384527;28;20095;-53
2022/04/03 00:23:01;;;;;;;2.33;1.20;;;16.80;50.10;;;;;;10374008;28;20116;-52
2022/04/03 00:28:02;;;;;;;1.48;0.98;;;16.90;50.10;;;;;;10374008;28;20176;-50
2022/04/03 00:33:03;;;;;;;2.20;1.10;;;16.80;49.80;;;;;;10408959;28;20025;-51
2022/04/03 00:38:03;;;;;;;1.23;0.90;;;16.90;49.60;;;;;;10383641;28;20053;-52
2022/04/03 00:43:04;;;;;;;2.17;1.00;;;16.90;49.40;;;;;;10413350;28;20037;-54
2022/04/03 00:48:07;;;;;;;1.48;0.90;;;17.00;49.20;;;;;;10373198;28;20038;-51
2022/04/03 00:53:07;;;;;;;2.72;1.17;;;17.00;49.10;;;;;;10381971;28;20465;-51
2022/04/03 00:58:11;;;;;;;2.15;1.10;;;17.00;49.00;;;;;;10365975;28;20128;-53
2022/04/03 01:03:11;;;;;;;2.05;1.17;;;17.00;48.90;;;;;;10413100;28;20037;-50
2022/04/03 01:08:12;;;;;;;1.85;0.90;;;17.00;48.80;;;;;;10412401;28;20155;-54
2022/04/03 01:13:13;;;;;;;3.33;1.40;;;17.00;48.60;;;;;;10377604;28;20037;-50
2022/04/03 01:18:13;;;;;;;1.73;0.90;;;17.00;48.50;;;;;;10372556;28;20058;-52
2022/04/03 01:23:14;;;;;;;1.55;1.13;;;17.00;48.40;;;;;;10372464;28;20066;-54
2022/04/03 01:28:15;;;;;;;1.52;0.90;;;17.00;48.40;;;;;;10372251;28;20108;-53
2022/04/03 01:33:16;;;;;;;1.95;0.98;;;17.10;48.20;;;;;;10409193;28;20031;-53
2022/04/03 01:38:17;;;;;;;1.92;1.25;;;17.10;48.00;;;;;;10374482;28;20037;-53
2022/04/03 01:43:17;;;;;;;2.15;1.23;;;17.10;47.90;;;;;;10371966;28;20045;-52
2022/04/03 01:48:18;;;;;;;2.30;0.80;;;17.10;47.90;;;;;;10371949;28;20036;-50
2022/04/03 01:53:19;;;;;;;2.40;1.48;;;17.10;47.70;;;;;;10367843;28;21318;-52
2022/04/03 01:58:19;;;;;;;4.22;1.10;;;17.20;47.60;;;;;;10384564;28;20116;-50
2022/04/03 02:03:20;;;;;;;2.17;1.20;;;17.10;47.50;;;;;;10412215;28;20095;-53
2022/04/03 02:08:21;;;;;;;1.90;1.17;;;17.10;47.50;;;;;;10411117;28;20782;-52
2022/04/03 02:13:21;;;;;;;2.42;1.08;;;17.10;47.40;;;;;;10412071;28;20033;-54
2022/04/03 02:18:22;;;;;;;3.20;1.25;;;17.10;47.30;;;;;;10416500;28;20478;-52
2022/04/03 02:23:23;;;;;;;2.35;1.05;;;17.10;47.20;;;;;;10419651;28;20029;-53
2022/04/03 02:28:24;;;;;;;2.83;1.15;;;17.10;47.10;;;;;;10407646;28;20108;-49
2022/04/03 02:33:25;;;;;;;1.67;0.98;;;17.20;47.00;;;;;;10378505;28;20484;-52
2022/04/03 02:38:26;;;;;;;1.70;1.02;;;17.10;46.90;;;;;;10374480;28;20041;-49
2022/04/03 02:43:26;;;;;;;2.47;1.20;;;17.20;46.80;;;;;;10404004;28;20500;-49
2022/04/03 02:48:27;;;;;;;2.10;1.08;;;17.20;46.80;;;;;;10377993;28;20403;-50
2022/04/03 02:53:28;;;;;;;1.52;1.08;;;17.20;46.70;;;;;;10396925;28;20501;-50
2022/04/03 02:58:29;;;;;;;3.25;1.60;;;17.20;46.60;;;;;;10417547;28;20068;-49
2022/04/03 03:03:30;;;;;;;1.48;0.98;;;17.20;46.50;;;;;;10407931;28;20065;-50
2022/04/03 03:08:30;;;;;;;2.13;1.27;;;17.20;46.50;;;;;;10377047;28;20128;-54
2022/04/03 03:13:31;;;;;;;2.90;1.10;;;17.30;46.20;;;;;;10376776;28;20116;-50
2022/04/03 03:18:32;;;;;;;1.48;0.90;;;17.40;45.80;;;;;;10377055;28;20423;-50
2022/04/03 03:23:34;;;;;;;3.00;1.15;;;17.40;45.60;;;;;;10376341;28;20061;-49
2022/04/03 03:28:35;;;;;;;1.52;0.90;;;17.40;45.80;;;;;;10376366;28;20026;-47
2022/04/03 03:33:35;;;;;;;2.17;0.95;;;17.40;45.60;;;;;;10414460;28;20470;-50
2022/04/03 03:38:36;;;;;;;1.65;0.85;;;17.40;45.70;;;;;;10375866;28;20065;-51
2022/04/03 03:43:38;;;;;;;1.63;0.90;;;17.40;45.50;;;;;;10375822;28;20038;-48
2022/04/03 03:48:39;;;;;;;2.25;1.23;;;17.40;45.50;;;;;;10375726;28;20371;-46
2022/04/03 03:53:39;;;;;;;3.15;1.45;;;17.40;45.70;;;;;;10375277;28;20105;-51
2022/04/03 03:58:40;;;;;;;1.90;1.15;;;17.30;45.80;;;;;;10378641;28;20030;-49
2022/04/03 04:03:41;;;;;;;2.17;1.13;;;17.20;45.80;;;;;;10374967;28;20141;-50
2022/04/03 04:08:42;;;;;;;2.88;1.33;;;17.30;45.70;;;;;;10369280;28;20501;-50
2022/04/03 04:13:44;;;;;;;3.05;1.20;;;17.30;45.60;;;;;;10374689;28;20434;-51
2022/04/03 04:18:44;;;;;;;2.42;1.30;;;17.30;45.60;;;;;;10374561;28;20161;-49
2022/04/03 04:23:45;;;;;;;1.60;1.00;;;17.30;45.40;;;;;;10373993;28;20435;-51
2022/04/03 04:28:48;;;;;;;1.63;0.90;;;17.30;45.50;;;;;;10393601;28;20066;-50
2022/04/03 04:33:49;;;;;;;1.67;0.90;;;17.30;45.40;;;;;;10374227;28;20125;-50
2022/04/03 04:38:50;;;;;;;1.50;0.90;;;17.30;45.40;;;;;;10373357;28;20057;-48
2022/04/03 04:43:50;;;;;;;2.15;1.10;;;17.30;45.40;;;;;;10368867;28;20115;-52
2022/04/03 04:48:51;;;;;;;1.67;1.00;;;17.30;45.30;;;;;;10386470;28;20494;-52
2022/04/03 04:53:52;;;;;;;1.98;1.20;;;17.40;45.40;;;;;;10373027;28;20064;-48
2022/04/03 04:58:53;;;;;;;1.33;0.90;;;17.30;45.40;;;;;;10406966;28;20025;-49
2022/04/03 05:03:53;;;;;;;3.10;1.10;;;17.30;45.30;;;;;;10403292;28;20490;-52
2022/04/03 05:08:54;;;;;;;1.95;0.90;;;17.30;45.30;;;;;;10386841;28;20129;-49
2022/04/03 05:13:55;;;;;;;2.42;1.35;;;17.30;45.30;;;;;;10373414;28;20069;-50
2022/04/03 05:18:56;;;;;;;1.73;1.05;;;17.30;45.30;;;;;;10367830;28;20038;-51
2022/04/03 05:23:57;;;;;;;1.42;1.02;;;17.30;45.60;;;;;;10382600;28;20080;-50
2022/04/03 05:28:58;;;;;;;7.10;1.17;;;17.40;46.40;;;;;;10372545;28;20046;-51
2022/04/03 05:33:59;;;;;;;9.45;1.52;;;17.40;47.20;;;;;;10372606;28;20545;-48
2022/04/03 05:39:00;;;;;;;4.55;0.93;;;17.50;48.00;;;;;;10362640;28;20033;-51
2022/04/03 05:44:02;;;;;;;4.15;1.30;;;17.50;48.50;;;;;;10367642;28;20029;-47
2022/04/03 05:49:02;;;;;;;3.92;1.40;;;17.40;49.00;;;;;;10371381;28;20120;-49
2022/04/03 05:54:04;;;;;;;3.55;1.17;;;17.30;48.80;;;;;;10378512;28;20022;-46
2022/04/03 05:59:04;;;;;;;3.50;1.17;;;17.40;48.90;;;;;;10379631;28;20587;-49
2022/04/03 06:04:05;;;;;;;8.52;1.95;;;17.30;48.90;;;;;;10392217;28;20060;-49
2022/04/03 06:09:06;;;;;;;11.65;1.88;;;17.20;49.90;;;;;;10389919;28;20173;-49
2022/04/03 06:14:06;;;;;;;5.85;1.58;;;17.30;50.10;;;;;;10379045;28;20033;-50
2022/04/03 06:19:07;;;;;;;6.25;1.20;;;17.30;50.30;;;;;;10378612;28;20025;-46
2022/04/03 06:24:08;;;;;;;7.28;1.42;;;17.20;50.90;;;;;;10392002;28;20478;-52
2022/04/03 06:29:08;;;;;;;3.88;1.52;;;17.30;51.20;;;;;;10389896;28;20109;-49
2022/04/03 06:34:09;;;;;;;6.15;1.25;;;17.20;50.60;;;;;;10379101;28;20053;-49
2022/04/03 06:39:10;;;;;;;4.07;0.95;;;17.20;50.50;;;;;;10380545;28;20030;-47
2022/04/03 06:44:11;;;;;;;5.32;1.52;;;17.10;50.90;;;;;;10386702;28;20069;-49
2022/04/03 06:49:11;;;;;;;4.22;1.20;;;17.00;51.20;;;;;;10400008;28;20026;-51
2022/04/03 06:54:12;;;;;;;8.52;1.40;;;17.00;51.90;;;;;;10403401;28;20129;-48
2022/04/03 06:59:13;;;;;;;10.10;1.65;;;16.90;52.10;;;;;;10388032;28;20048;-48
2022/04/03 07:04:13;;;;;;;14.63;2.22;;;16.90;52.20;;;;;;10395527;28;20065;-50
2022/04/03 07:09:14;;;;;;;10.80;2.50;;;17.00;52.00;;;;;;10417527;28;20073;-51
2022/04/03 07:14:15;;;;;;;9.68;1.63;;;16.90;51.30;;;;;;10409874;28;20030;-50
2022/04/03 07:19:15;;;;;;;7.88;1.83;;;16.80;51.00;;;;;;10376471;28;20539;-50
2022/04/03 07:24:17;;;;;;;8.35;1.58;;;16.80;50.80;;;;;;10392870;28;20044;-51
2022/04/03 07:29:18;;;;;;;5.10;1.25;;;16.80;50.70;;;;;;10376876;28;20088;-50
2022/04/03 07:34:19;;;;;;;4.00;1.25;;;16.70;50.70;;;;;;10376726;28;20092;-47
2022/04/03 07:39:21;;;;;;;4.88;1.55;;;16.70;50.40;;;;;;10375971;28;20037;-50
2022/04/03 07:44:22;;;;;;;5.40;1.58;;;16.70;50.10;;;;;;10375850;28;20359;-51
2022/04/03 07:49:23;;;;;;;2.70;1.20;;;16.80;49.90;;;;;;10375524;28;20068;-50
2022/04/03 07:54:24;;;;;;;2.85;1.17;;;16.80;49.70;;;;;;10376579;28;20081;-52
2022/04/03 07:59:24;;;;;;;7.88;1.88;;;16.80;49.70;;;;;;10375004;28;20514;-50
2022/04/03 08:04:25;;;;;;;2.58;1.20;;;16.80;49.50;;;;;;10375171;28;20029;-53
2022/04/03 08:09:26;;;;;;;4.35;1.42;;;16.90;49.40;;;;;;10400465;28;20073;-51
2022/04/03 08:14:27;;;;;;;4.88;1.63;;;16.90;49.30;;;;;;10373729;28;20038;-47
2022/04/03 08:19:28;;;;;;;4.32;1.55;;;16.80;49.30;;;;;;10374210;28;20022;-51
2022/04/03 08:24:29;;;;;;;5.30;1.95;;;16.80;49.30;;;;;;10385438;28;20061;-50
2022/04/03 08:29:30;;;;;;;3.10;1.10;;;16.80;49.10;;;;;;10384454;28;20487;-51
2022/04/03 08:34:30;;;;;;;3.10;1.30;;;16.90;49.10;;;;;;10382246;28;20483;-49
2022/04/03 08:39:32;;;;;;;2.40;0.98;;;16.90;49.20;;;;;;10369273;28;20064;-49
2022/04/03 08:44:33;;;;;;;2.15;1.00;;;16.90;49.00;;;;;;10373346;28;20128;-51
2022/04/03 08:49:36;;;;;;;2.60;1.17;;;16.90;49.10;;;;;;10362968;28;20100;-48
2022/04/03 08:54:38;;;;;;;2.47;1.00;;;16.80;49.10;;;;;;10371594;28;20037;-52
2022/04/03 08:59:38;;;;;;;3.53;1.83;;;16.80;49.30;;;;;;10381163;28;20026;-50
2022/04/03 09:04:39;;;;;;;2.28;1.13;;;16.80;49.30;;;;;;10372629;28;20460;-49
2022/04/03 09:09:40;;;;;;;2.45;1.27;;;16.70;50.10;;;;;;10371944;28;20046;-50
2022/04/03 09:14:52;;;;;;;3.47;1.30;;;16.60;49.70;;;;;;10371067;28;20030;-50
2022/04/03 09:19:54;;;;;;;2.42;0.95;;;16.60;49.90;;;;;;10371674;28;20048;-51
2022/04/03 09:24:55;;;;;;;1.80;0.90;;;16.50;50.00;;;;;;10386686;28;20429;-49
2022/04/03 09:30:07;;;;;;;3.03;1.00;;;16.50;49.90;;;;;;10389511;28;20129;-50
2022/04/03 09:35:08;;;;;;;1.88;0.88;;;16.50;49.80;;;;;;10379751;28;20422;-49
2022/04/03 09:40:10;;;;;;;4.65;1.23;;;16.50;49.90;;;;;;10389985;28;20036;-52
2022/04/03 09:45:25;;;;;;;6.38;1.27;;;16.70;49.20;;;;;;10398215;28;20091;-49
2022/04/03 09:50:26;;;;;;;10.20;1.48;;;16.90;50.10;;;;;;10371806;28;20534;-50
2022/04/03 09:55:28;;;;;;;8.15;1.40;;;17.20;50.80;;;;;;10371468;28;20030;-47
2022/04/03 10:00:35;;;;;;;14.35;2.72;;;17.60;49.90;;;;;;10382927;28;20072;-53
2022/04/03 10:05:36;;;;;;;7.50;1.60;;;17.40;51.60;;;;;;10407613;28;20041;-48
2022/04/03 10:10:37;;;;;;;6.07;1.73;;;17.30;52.70;;;;;;10411464;28;20124;-50
2022/04/03 10:15:38;;;;;;;9.35;1.85;;;17.20;53.00;;;;;;10378666;28;20030;-48
2022/04/03 10:20:39;;;;;;;9.48;1.30;;;17.10;52.90;;;;;;10371797;28;20038;-53
2022/04/03 10:25:47;;;;;;;8.98;1.95;;;17.10;53.10;;;;;;10370786;28;20497;-52
2022/04/03 10:30:59;;;;;;;7.65;1.40;;;17.00;52.40;;;;;;10367242;28;20034;-46
2022/04/03 10:36:07;;;;;;;11.73;1.70;;;16.80;52.10;;;;;;10353974;28;20034;-47
2022/04/03 10:41:24;;;;;;;7.07;1.85;;;16.60;51.80;;;;;;10378525;28;20029;-49
2022/04/03 10:46:24;;;;;;;5.03;1.85;;;16.60;51.50;;;;;;10374504;28;20382;-51
2022/04/03 10:51:26;;;;;;;6.78;1.65;;;16.60;51.30;;;;;;10398992;28;20056;-52
2022/04/03 10:56:29;;;;;;;2.47;0.90;;;16.50;51.30;;;;;;10418354;28;20037;-51
2022/04/03 11:01:32;;;;;;;7.88;1.10;;;16.50;52.10;;;;;;10379403;28;20030;-52
2022/04/03 11:06:35;;;;;;;4.18;1.50;;;16.50;51.50;;;;;;10377459;28;20041;-51
2022/04/03 11:11:49;;;;;;;5.20;1.25;;;16.40;51.40;;;;;;10376910;28;20042;-51
2022/04/03 11:16:55;;;;;;;3.08;0.90;;;16.30;51.40;;;;;;10337883;28;20042;-52
2022/04/03 11:21:56;;;;;;;4.80;0.93;;;16.30;51.20;;;;;;10385113;28;20493;-50
2022/04/03 11:26:57;;;;;;;5.97;1.20;;;16.40;50.80;;;;;;10376060;28;20048;-50
2022/04/03 11:31:58;;;;;;;5.15;1.35;;;16.40;50.80;;;;;;10402780;28;20021;-52
2022/04/03 11:37:02;;;;;;;3.03;1.00;;;16.40;50.50;;;;;;10388940;28;20478;-53
2022/04/03 11:42:08;;;;;;;1.80;0.98;;;16.50;50.30;;;;;;10375932;28;20036;-53
2022/04/03 11:47:21;;;;;;;4.15;1.33;;;16.50;50.00;;;;;;10389173;28;20041;-54
2022/04/03 11:52:22;;;;;;;4.70;0.80;;;16.60;50.00;;;;;;10371610;28;20021;-52
2022/04/03 11:57:23;;;;;;;1.35;0.60;;;16.60;50.40;;;;;;10400906;28;20081;-53
2022/04/03 12:02:24;;;;;;;3.35;0.73;;;16.70;50.00;;;;;;10375593;28;20041;-53
2022/04/03 12:07:27;;;;;;;2.42;0.90;;;16.60;50.20;;;;;;10359080;28;20046;-54
2022/04/03 12:12:28;;;;;;;2.83;1.00;;;16.60;50.00;;;;;;10374491;28;20449;-50
2022/04/03 12:17:28;;;;;;;2.92;0.75;;;16.60;50.40;;;;;;10356328;28;20167;-53
2022/04/03 12:22:31;;;;;;;2.92;1.10;;;16.50;50.30;;;;;;10384114;28;20469;-50
2022/04/03 12:27:34;;;;;;;1.55;0.90;;;16.40;50.40;;;;;;10410461;28;20057;-53
2022/04/03 12:32:36;;;;;;;3.90;1.77;;;16.40;50.90;;;;;;10373862;28;20162;-53
2022/04/03 12:37:42;;;;;;;1.67;0.80;;;16.40;50.20;;;;;;10364903;28;20065;-52
2022/04/03 12:42:45;;;;;;;1.52;0.65;;;16.40;50.00;;;;;;10373522;28;20034;-54
2022/04/03 12:48:05;;;;;;;1.77;0.60;;;16.40;49.90;;;;;;10373716;28;20116;-54
2022/04/03 12:53:16;;;;;;;1.10;0.60;;;16.50;49.60;;;;;;10381776;28;20033;-51
2022/04/03 12:58:34;;;;;;;2.65;0.70;;;16.50;49.40;;;;;;10373686;28;20037;-53
2022/04/03 13:03:38;;;;;;;2.72;0.60;;;16.50;49.20;;;;;;10389556;28;20441;-52
2022/04/03 13:09:06;;;;;;;1.30;0.60;;;16.60;49.20;;;;;;10380659;28;20041;-53
2022/04/03 13:14:26;;;;;;;7.07;1.13;;;16.60;50.40;;;;;;10380671;28;20045;-51
2022/04/03 13:19:30;;;;;;;4.20;0.95;;;16.70;50.60;;;;;;10392847;28;20397;-57
2022/04/03 13:24:32;;;;;;;2.70;0.60;;;16.70;50.40;;;;;;10387805;28;20124;-54
2022/04/03 13:29:34;;;;;;;4.32;0.95;;;16.80;50.90;;;;;;10389434;28;20053;-49
2022/04/03 13:34:34;;;;;;;9.95;1.50;;;16.80;51.70;;;;;;10390168;28;20544;-52
2022/04/03 13:39:36;;;;;;;9.43;2.42;;;16.70;52.40;;;;;;10386572;28;20025;-51
2022/04/03 13:44:38;;;;;;;12.73;2.60;;;16.70;52.40;;;;;;10374815;28;20113;-48
2022/04/03 13:49:38;;;;;;;20.00;2.15;;;16.70;52.90;;;;;;10388071;28;20030;-48
2022/04/03 13:54:39;;;;;;;15.45;2.30;;;16.60;53.40;;;;;;10385506;28;20561;-51
2022/04/03 13:59:40;;;;;;;16.55;2.20;;;16.70;53.40;;;;;;10381010;28;20038;-51
2022/04/03 14:04:40;;;;;;;12.10;2.00;;;16.60;53.10;;;;;;10380874;28;20036;-50
2022/04/03 14:09:41;;;;;;;15.23;1.92;;;16.60;53.70;;;;;;10386514;28;20073;-52
2022/04/03 14:14:42;;;;;;;14.77;2.22;;;16.60;53.20;;;;;;10400026;28;20530;-50
2022/04/03 14:19:42;;;;;;;13.40;1.83;;;16.70;53.00;;;;;;10391235;28;20569;-47
2022/04/03 14:24:43;;;;;;;15.93;2.35;;;16.60;53.30;;;;;;10399148;28;20056;-50
2022/04/03 14:29:45;;;;;;;15.50;3.03;;;16.60;53.90;;;;;;10397647;28;20069;-47
2022/04/03 14:34:46;;;;;;;16.15;2.38;;;16.60;54.30;;;;;;10384647;28;20477;-47
2022/04/03 14:39:46;;;;;;;16.13;2.22;;;16.70;54.30;;;;;;10395129;28;20109;-50
2022/04/03 14:44:47;;;;;;;16.23;2.97;;;16.70;54.50;;;;;;10387132;28;20370;-49
2022/04/03 14:49:48;;;;;;;15.15;2.40;;;16.70;54.60;;;;;;10383997;28;20505;-50
2022/04/03 14:54:50;;;;;;;15.52;5.60;;;16.60;54.30;;;;;;10373947;28;20049;-50
2022/04/03 14:59:50;;;;;;;12.50;4.15;;;16.40;53.90;;;;;;10398565;28;20095;-51
2022/04/03 15:04:51;;;;;;;13.35;4.63;;;16.50;59.10;;;;;;10395937;28;20133;-54
2022/04/03 15:09:52;;;;;;;10.27;2.42;;;16.50;55.50;;;;;;10377025;28;20053;-51
2022/04/03 15:14:54;;;;;;;9.63;2.67;;;16.60;55.10;;;;;;10377246;28;20092;-51
2022/04/03 15:19:55;;;;;;;18.48;2.75;;;16.70;55.00;;;;;;10377572;28;20034;-51
2022/04/03 15:24:55;;;;;;;15.35;3.65;;;16.80;54.50;;;;;;10384676;28;20036;-50
2022/04/03 15:29:58;;;;;;;13.35;3.35;;;17.10;54.50;;;;;;10393821;28;20609;-50
2022/04/03 15:35:01;;;;;;;10.13;2.60;;;17.30;55.00;;;;;;10388191;28;20087;-51
2022/04/03 15:40:02;;;;;;;10.07;2.58;;;17.40;56.50;;;;;;10394298;28;20057;-51
2022/04/03 15:45:07;;;;;;;14.65;3.88;;;17.40;58.50;;;;;;10392821;28;20026;-52
2022/04/03 15:50:08;;;;;;;9.32;2.78;;;17.40;60.30;;;;;;10379127;28;20120;-53
2022/04/03 15:55:09;;;;;;;17.45;3.50;;;17.60;60.20;;;;;;10386192;28;20091;-52
2022/04/03 16:00:12;;;;;;;13.07;2.83;;;17.70;59.50;;;;;;10415020;28;20401;-48
2022/04/03 16:05:14;;;;;;;15.70;2.78;;;17.80;60.40;;;;;;10387384;28;20037;-49
2022/04/03 16:10:27;;;;;;;18.75;4.38;;;17.90;59.30;;;;;;10384854;28;20042;-53
2022/04/03 16:15:31;;;;;;;12.55;2.88;;;17.90;59.90;;;;;;10414760;28;20041;-51
2022/04/03 16:20:34;;;;;;;11.30;3.78;;;17.60;60.70;;;;;;10389028;28;20029;-51
2022/04/03 16:25:35;;;;;;;15.60;3.20;;;17.50;60.20;;;;;;10370970;28;20044;-52
2022/04/03 16:30:37;;;;;;;17.00;2.88;;;17.30;59.60;;;;;;10383923;28;20029;-53
2022/04/03 16:35:39;;;;;;;11.63;2.63;;;17.20;59.60;;;;;;10365923;28;20030;-47
2022/04/03 16:40:43;;;;;;;17.20;3.50;;;17.20;59.80;;;;;;10375547;28;20026;-54
2022/04/03 16:45:46;;;;;;;22.08;3.50;;;17.10;59.60;;;;;;10394532;28;20096;-53
2022/04/03 16:50:46;;;;;;;16.55;2.75;;;17.00;60.40;;;;;;10391357;28;20072;-55
2022/04/03 16:55:48;;;;;;;17.73;3.83;;;16.90;60.50;;;;;;10385926;28;20478;-56
2022/04/03 17:00:49;;;;;;;18.30;3.10;;;16.90;60.30;;;;;;10370297;28;20029;-54
2022/04/03 17:05:50;;;;;;;14.48;4.22;;;16.80;59.80;;;;;;10392408;28;20546;-54
2022/04/03 17:10:51;;;;;;;12.70;3.20;;;16.80;59.50;;;;;;10375098;28;20180;-53
2022/04/03 17:15:53;;;;;;;14.95;2.67;;;16.70;59.40;;;;;;10377926;28;20075;-54
2022/04/03 17:20:54;;;;;;;12.55;3.10;;;16.70;59.50;;;;;;10390889;28;20155;-55
2022/04/03 17:25:56;;;;;;;12.80;2.65;;;16.60;59.30;;;;;;10374289;28;20119;-54
2022/04/03 17:30:59;;;;;;;9.82;2.58;;;16.50;59.10;;;;;;10386910;28;20033;-56
2022/04/03 17:35:59;;;;;;;7.60;2.08;;;16.50;58.80;;;;;;10383044;28;20017;-55
2022/04/03 17:41:00;;;;;;;8.63;2.40;;;16.50;58.60;;;;;;10387781;28;20064;-56
2022/04/03 17:46:02;;;;;;;7.28;1.92;;;16.60;58.50;;;;;;10385519;28;20025;-56
2022/04/03 17:51:03;;;;;;;4.57;2.05;;;16.60;58.50;;;;;;10375804;28;20370;-55
2022/04/03 17:56:08;;;;;;;9.40;2.10;;;16.60;58.40;;;;;;10383290;28;20347;-56
2022/04/03 18:01:09;;;;;;;7.40;2.30;;;16.70;58.20;;;;;;10400904;28;20034;-56
2022/04/03 18:06:10;;;;;;;6.05;2.00;;;16.70;57.90;;;;;;10412954;28;20056;-55
2022/04/03 18:11:15;;;;;;;6.93;1.80;;;16.80;57.70;;;;;;10379295;28;20124;-55
2022/04/03 18:16:17;;;;;;;10.38;1.95;;;16.80;57.60;;;;;;10380436;28;20105;-56
2022/04/03 18:21:19;;;;;;;5.18;2.00;;;16.80;57.80;;;;;;10385462;28;20053;-56
2022/04/03 18:26:22;;;;;;;12.68;2.45;;;16.70;58.00;;;;;;10372018;28;20066;-56
2022/04/03 18:31:22;;;;;;;6.20;2.28;;;16.70;58.10;;;;;;10385910;28;20072;-56
2022/04/03 18:36:24;;;;;;;8.82;2.28;;;16.80;57.80;;;;;;10384458;28;20159;-56
2022/04/03 18:41:25;;;;;;;7.53;2.20;;;16.80;57.60;;;;;;10387295;28;20029;-55
2022/04/03 18:46:25;;;;;;;9.43;2.90;;;16.80;57.60;;;;;;10378028;28;20114;-55
2022/04/03 18:51:26;;;;;;;11.95;2.80;;;16.80;57.90;;;;;;10377704;28;20056;-54
2022/04/03 18:56:27;;;;;;;10.45;3.25;;;16.70;58.10;;;;;;10377621;28;20049;-54
2022/04/03 19:01:27;;;;;;;10.70;3.22;;;16.70;58.20;;;;;;10372269;28;20108;-54
2022/04/03 19:06:30;;;;;;;11.25;3.70;;;16.70;58.00;;;;;;10382186;28;20139;-52
2022/04/03 19:11:32;;;;;;;9.50;2.65;;;16.70;58.00;;;;;;10376788;28;20510;-51
2022/04/03 19:16:34;;;;;;;7.57;2.53;;;16.70;58.40;;;;;;10384224;28;20084;-53
2022/04/03 19:21:35;;;;;;;7.70;2.10;;;16.80;58.20;;;;;;10382387;28;20050;-53
2022/04/03 19:26:36;;;;;;;5.47;2.55;;;16.90;57.80;;;;;;10375069;28;20112;-54
2022/04/03 19:31:37;;;;;;;6.25;2.35;;;17.00;57.50;;;;;;10411815;28;20109;-55
2022/04/03 19:36:37;;;;;;;7.25;2.42;;;17.10;57.60;;;;;;10364018;28;20030;-52
2022/04/03 19:41:38;;;;;;;5.80;2.42;;;17.00;57.60;;;;;;10412246;28;20615;-54
2022/04/03 19:46:39;;;;;;;6.00;2.40;;;16.80;57.60;;;;;;10415732;28;20029;-54
2022/04/03 19:51:39;;;;;;;5.82;2.30;;;16.80;57.60;;;;;;10416344;28;20516;-53
2022/04/03 19:56:40;;;;;;;7.40;2.22;;;16.80;57.60;;;;;;10415697;28;20608;-55
2022/04/03 20:01:41;;;;;;;5.32;2.35;;;16.80;56.90;;;;;;10398127;28;20065;-55
2022/04/03 20:06:42;;;;;;;7.00;2.83;;;16.90;56.40;;;;;;10389939;28;20128;-56
2022/04/03 20:11:43;;;;;;;6.05;2.53;;;16.90;55.90;;;;;;10399027;28;20796;-55
2022/04/03 20:16:45;;;;;;;7.20;2.40;;;16.90;55.50;;;;;;10379746;28;20038;-55
2022/04/03 20:21:46;;;;;;;4.13;1.90;;;17.00;55.30;;;;;;10380260;28;20021;-56
2022/04/03 20:26:47;;;;;;;3.38;1.60;;;17.00;55.00;;;;;;10412423;28;20034;-56
2022/04/03 20:31:48;;;;;;;4.90;2.25;;;17.00;54.70;;;;;;10372486;28;20037;-56
2022/04/03 20:36:49;;;;;;;5.55;1.67;;;17.00;54.60;;;;;;10374779;28;20109;-56
2022/04/03 20:41:50;;;;;;;3.60;1.50;;;16.90;54.50;;;;;;10373784;28;20132;-56
2022/04/03 20:46:51;;;;;;;3.45;1.48;;;17.00;54.30;;;;;;10386914;28;20034;-56
2022/04/03 20:51:53;;;;;;;3.53;1.70;;;17.00;54.20;;;;;;10371302;28;20054;-55
2022/04/03 20:56:53;;;;;;;4.32;1.63;;;16.90;54.10;;;;;;10373603;28;20052;-55
2022/04/03 21:01:55;;;;;;;2.58;1.33;;;17.00;53.90;;;;;;10406122;28;20061;-55
2022/04/03 21:06:55;;;;;;;3.25;1.70;;;17.00;53.70;;;;;;10382894;28;20029;-56
2022/04/03 21:11:57;;;;;;;3.38;1.27;;;17.00;53.50;;;;;;10388540;28;20490;-56
2022/04/03 21:17:00;;;;;;;2.65;1.23;;;17.00;53.40;;;;;;10413513;28;20474;-55
2022/04/03 21:22:00;;;;;;;4.07;1.73;;;17.00;53.30;;;;;;10411338;28;20037;-56
2022/04/03 21:27:01;;;;;;;2.00;1.23;;;17.00;53.10;;;;;;10413075;28;20038;-55
2022/04/03 21:32:04;;;;;;;3.72;1.48;;;17.00;53.00;;;;;;10386049;28;20124;-56
2022/04/03 21:37:05;;;;;;;2.22;1.20;;;17.00;52.90;;;;;;10398968;28;20127;-56
2022/04/03 21:42:05;;;;;;;3.75;1.60;;;17.10;52.70;;;;;;10412800;28;20029;-56
2022/04/03 21:47:07;;;;;;;2.90;1.30;;;17.10;52.50;;;;;;10411991;28;20029;-56
2022/04/03 21:52:08;;;;;;;3.13;1.50;;;17.10;52.30;;;;;;10380381;28;20490;-56
2022/04/03 21:57:08;;;;;;;1.30;0.82;;;17.10;52.20;;;;;;10412585;28;20124;-56
2022/04/03 22:02:09;;;;;;;1.70;0.98;;;17.10;52.20;;;;;;10411684;28;20426;-56
2022/04/03 22:07:10;;;;;;;3.70;1.35;;;17.10;52.00;;;;;;10379812;28;20030;-58
2022/04/03 22:12:10;;;;;;;2.13;0.90;;;17.10;51.90;;;;;;10371519;28;20078;-55
2022/04/03 22:17:11;;;;;;;3.72;1.20;;;17.10;51.80;;;;;;10376471;28;20091;-56
2022/04/03 22:22:12;;;;;;;2.13;1.15;;;17.10;51.70;;;;;;10411967;28;20461;-56
2022/04/03 22:27:13;;;;;;;2.35;1.15;;;17.20;51.50;;;;;;10411175;28;20045;-56
2022/04/03 22:32:13;;;;;;;2.92;1.02;;;17.20;51.40;;;;;;10371712;28;20509;-56
2022/04/03 22:37:15;;;;;;;3.30;1.52;;;17.20;51.20;;;;;;10382920;28;20463;-56
2022/04/03 22:42:16;;;;;;;1.95;1.25;;;17.30;51.10;;;;;;10378545;28;20120;-56
2022/04/03 22:47:16;;;;;;;1.63;1.00;;;17.30;50.90;;;;;;10384688;28;20116;-56
2022/04/03 22:52:17;;;;;;;3.88;1.38;;;17.30;50.90;;;;;;10418218;28;20053;-55
2022/04/03 22:57:18;;;;;;;1.88;1.10;;;17.30;50.90;;;;;;10418796;28;20120;-54
2022/04/03 23:02:18;;;;;;;2.72;1.25;;;17.30;50.80;;;;;;10417708;28;20057;-55
2022/04/03 23:07:19;;;;;;;2.45;1.27;;;17.20;50.80;;;;;;10384219;28;20419;-56
2022/04/03 23:12:20;;;;;;;2.13;1.10;;;17.30;50.80;;;;;;10377072;28;20074;-55
2022/04/03 23:17:20;;;;;;;2.53;1.35;;;17.20;50.80;;;;;;10377227;28;20116;-55
2022/04/03 23:22:21;;;;;;;3.20;1.10;;;17.30;50.50;;;;;;10376930;28;20061;-56
2022/04/03 23:27:22;;;;;;;2.50;1.38;;;17.30;50.50;;;;;;10376936;28;20092;-56
2022/04/03 23:32:23;;;;;;;4.47;1.65;;;17.30;50.30;;;;;;10389767;28;20079;-56
2022/04/03 23:37:25;;;;;;;3.17;1.42;;;17.30;50.40;;;;;;10379872;28;20045;-56
2022/04/03 23:42:26;;;;;;;2.03;1.40;;;17.40;50.10;;;;;;10376286;28;20068;-56
2022/04/03 23:47:26;;;;;;;2.10;1.10;;;17.40;50.10;;;;;;10413356;28;20041;-56
2022/04/03 23:52:27;;;;;;;1.92;1.05;;;17.40;50.10;;;;;;10398180;28;20030;-55
2022/04/03 23:57:28;;;;;;;3.67;0.95;;;17.40;50.20;;;;;;10387614;28;20585;-56
